createdAt,value
2023-01-08T00:01:27.263Z,99.9
2023-01-08T00:03:29.411Z,99.9
2023-01-08T00:05:31.215Z,99.9
2023-01-08T00:07:33.233Z,99.9
2023-01-08T00:09:35.192Z,99.9
2023-01-08T00:11:37.209Z,99.9
2023-01-08T00:13:39.195Z,99.9
2023-01-08T00:15:44.251Z,99.9
2023-01-08T00:17:46.259Z,99.9
2023-01-08T00:19:48.269Z,99.9
2023-01-08T00:20:50.844Z,99.9
2023-01-08T00:22:52.799Z,99.9
2023-01-08T00:24:54.880Z,99.9
2023-01-08T00:26:56.798Z,99.9
2023-01-08T00:29:01.821Z,99.9
2023-01-08T00:31:04.133Z,99.9
2023-01-08T00:33:05.808Z,99.9
2023-01-08T00:35:07.781Z,99.9
2023-01-08T00:37:09.791Z,99.9
2023-01-08T00:39:11.790Z,99.9
2023-01-08T00:41:13.792Z,99.9
2023-01-08T00:43:18.834Z,99.9
2023-01-08T00:45:20.825Z,99.9
2023-01-08T00:47:22.845Z,99.9
2023-01-08T00:49:24.835Z,99.9
2023-01-08T00:51:26.819Z,99.9
2023-01-08T00:53:28.799Z,99.9
2023-01-08T00:55:32.333Z,99.9
2023-01-08T00:57:37.357Z,99.9
2023-01-08T00:59:39.347Z,99.9
2023-01-08T01:01:41.442Z,99.9
2023-01-08T01:03:43.354Z,99.9
2023-01-08T01:07:47.338Z,99.9
2023-01-08T01:09:49.311Z,99.9
2023-01-08T01:11:54.357Z,99.9
2023-01-08T01:13:56.355Z,99.9
2023-01-08T01:15:58.371Z,99.9
2023-01-08T01:18:21.103Z,99.9
2023-01-08T01:20:23.095Z,99.9
2023-01-08T01:22:25.166Z,99.9
2023-01-08T01:24:30.155Z,99.9
2023-01-08T01:26:32.135Z,99.9
2023-01-08T01:28:34.141Z,99.9
2023-01-08T01:30:36.191Z,99.9
2023-01-08T01:32:38.136Z,99.9
2023-01-08T01:34:40.118Z,99.9
2023-01-08T01:36:42.160Z,99.9
2023-01-08T01:38:47.185Z,99.9
2023-01-08T01:40:49.173Z,99.9
2023-01-08T01:42:51.166Z,99.9
2023-01-08T01:44:53.194Z,99.9
2023-01-08T01:46:55.198Z,99.9
2023-01-08T01:48:57.200Z,99.9
2023-01-08T01:50:59.161Z,99.9
2023-01-08T01:53:04.228Z,99.9
2023-01-08T01:55:06.275Z,99.9
2023-01-08T01:57:08.273Z,99.9
2023-01-08T01:59:10.260Z,99.9
2023-01-08T02:01:12.387Z,99.9
2023-01-08T02:03:14.268Z,99.9
2023-01-08T02:05:16.269Z,99.9
2023-01-08T02:07:21.311Z,99.9
2023-01-08T02:09:23.301Z,99.9
2023-01-08T02:11:25.271Z,99.9
2023-01-08T02:12:27.794Z,99.9
2023-01-08T02:14:29.789Z,99.9
2023-01-08T02:16:31.860Z,99.9
2023-01-08T02:18:33.801Z,99.9
2023-01-08T02:20:38.843Z,99.9
2023-01-08T02:22:40.811Z,99.9
2023-01-08T02:24:42.837Z,99.9
2023-01-08T02:26:44.825Z,99.9
2023-01-08T02:28:46.800Z,99.9
2023-01-08T02:30:48.832Z,99.9
2023-01-08T02:32:50.780Z,99.9
2023-01-08T02:36:57.853Z,99.9
2023-01-08T02:38:59.836Z,99.9
2023-01-08T02:45:05.817Z,99.9
2023-01-08T02:47:07.859Z,99.9
2023-01-08T02:49:12.827Z,99.9
2023-01-08T02:51:14.796Z,99.9
2023-01-08T02:53:16.778Z,99.9
2023-01-08T02:55:18.904Z,99.9
2023-01-08T02:57:20.769Z,99.9
2023-01-08T02:59:22.755Z,99.9
2023-01-08T03:01:24.884Z,99.9
2023-01-08T03:03:29.770Z,99.9
2023-01-08T03:05:31.775Z,99.9
2023-01-08T03:07:33.767Z,99.9
2023-01-08T03:08:36.285Z,99.9
2023-01-08T03:10:38.253Z,99.9
2023-01-08T03:12:40.237Z,99.9
2023-01-08T03:14:42.254Z,99.9
2023-01-08T03:16:47.315Z,99.9
2023-01-08T03:18:49.263Z,99.9
2023-01-08T03:20:51.233Z,99.9
2023-01-08T03:24:55.235Z,99.9
2023-01-08T03:26:57.223Z,99.9
2023-01-08T03:28:59.175Z,99.9
2023-01-08T03:33:06.228Z,99.9
2023-01-08T03:35:08.206Z,99.9
2023-01-08T03:37:10.175Z,99.9
2023-01-08T03:39:12.168Z,99.9
2023-01-08T03:41:14.153Z,99.9
2023-01-08T03:45:21.180Z,99.9
2023-01-08T03:47:23.155Z,99.9
2023-01-08T03:49:25.129Z,99.9
2023-01-08T03:51:27.103Z,99.9
2023-01-08T03:53:29.106Z,99.9
2023-01-08T03:55:31.100Z,99.9
2023-01-08T03:57:33.054Z,99.9
2023-01-08T03:59:38.088Z,99.9
2023-01-08T04:01:40.215Z,99.9
2023-01-08T04:03:42.082Z,99.9
2023-01-08T04:06:46.560Z,99.9
2023-01-08T04:08:48.531Z,99.9
2023-01-08T04:10:50.530Z,99.9
2023-01-08T04:14:57.575Z,99.9
2023-01-08T04:16:59.528Z,99.9
2023-01-08T04:21:03.506Z,99.9
2023-01-08T04:23:05.509Z,99.9
2023-01-08T04:25:07.486Z,99.9
2023-01-08T04:27:12.512Z,99.9
2023-01-08T04:29:14.522Z,99.9
2023-01-08T04:31:16.544Z,99.9
2023-01-08T04:33:18.489Z,99.9
2023-01-08T04:35:20.501Z,99.9
2023-01-08T04:37:22.513Z,99.9
2023-01-08T04:39:24.493Z,99.9
2023-01-08T04:41:29.503Z,99.9
2023-01-08T04:43:31.526Z,99.9
2023-01-08T04:47:35.461Z,99.9
2023-01-08T04:49:37.442Z,99.9
2023-01-08T04:51:39.416Z,99.9
2023-01-08T04:53:41.406Z,99.9
2023-01-08T04:55:46.424Z,99.9
2023-01-08T04:57:48.398Z,99.9
2023-01-08T04:59:50.407Z,99.9
2023-01-08T05:02:07.580Z,99.9
2023-01-08T05:04:09.365Z,99.9
2023-01-08T05:06:11.336Z,99.9
2023-01-08T05:08:16.367Z,99.9
2023-01-08T05:10:18.362Z,99.9
2023-01-08T05:12:20.343Z,99.9
2023-01-08T05:14:22.315Z,99.9
2023-01-08T05:16:24.299Z,99.9
2023-01-08T05:18:26.278Z,99.9
2023-01-08T05:20:28.255Z,99.9
2023-01-08T05:22:33.295Z,99.9
2023-01-08T05:26:37.251Z,99.9
2023-01-08T05:30:41.316Z,99.9
2023-01-08T05:32:43.177Z,99.9
2023-01-08T05:34:45.323Z,99.9
2023-01-08T05:36:50.173Z,99.9
2023-01-08T05:38:52.169Z,99.9
2023-01-08T05:40:54.142Z,99.9
2023-01-08T05:42:56.126Z,99.9
2023-01-08T05:44:58.080Z,99.9
2023-01-08T05:47:00.068Z,99.9
2023-01-08T05:49:02.045Z,99.9
2023-01-08T05:51:07.079Z,99.9
2023-01-08T05:53:09.058Z,99.9
2023-01-08T05:55:11.046Z,99.9
2023-01-08T05:56:13.534Z,99.9
2023-01-08T05:58:15.531Z,99.9
2023-01-08T06:00:17.504Z,99.9
2023-01-08T06:02:19.487Z,99.9
2023-01-08T06:04:24.695Z,99.9
2023-01-08T06:06:27.244Z,99.9
2023-01-08T06:08:29.198Z,99.9
2023-01-08T06:12:33.139Z,99.9
2023-01-08T06:14:35.132Z,99.9
2023-01-08T06:16:37.117Z,99.9
2023-01-08T06:18:42.168Z,99.9
2023-01-08T06:20:44.140Z,99.9
2023-01-08T06:22:46.093Z,99.9
2023-01-08T06:24:48.092Z,99.9
2023-01-08T06:26:50.105Z,99.9
2023-01-08T06:28:52.078Z,99.9
2023-01-08T06:30:54.244Z,99.9
2023-01-08T06:32:59.086Z,99.9
2023-01-08T06:35:01.063Z,99.9
2023-01-08T06:37:03.056Z,99.9
2023-01-08T06:39:05.034Z,99.9
2023-01-08T06:41:07.054Z,99.9
2023-01-08T06:43:09.000Z,99.9
2023-01-08T06:45:10.974Z,99.9
2023-01-08T06:47:17.501Z,99.9
2023-01-08T06:49:19.489Z,99.9
2023-01-08T06:51:21.468Z,99.9
2023-01-08T06:52:23.979Z,99.9
2023-01-08T06:54:25.962Z,99.9
2023-01-08T06:56:27.923Z,99.9
2023-01-08T06:58:29.901Z,99.9
2023-01-08T07:02:37.138Z,99.9
2023-01-08T07:04:38.914Z,99.9
2023-01-08T07:06:40.893Z,99.9
2023-01-08T07:14:51.858Z,99.9
2023-01-08T07:16:53.830Z,99.9
2023-01-08T07:18:55.785Z,99.9
2023-01-08T07:20:57.766Z,99.9
2023-01-08T07:22:59.741Z,99.9
2023-01-08T07:25:01.711Z,99.9
2023-01-08T07:27:03.714Z,99.9
2023-01-08T07:29:08.701Z,99.9
2023-01-08T07:31:10.756Z,99.9
2023-01-08T07:33:12.666Z,99.9
2023-01-08T07:37:16.572Z,99.9
2023-01-08T07:39:18.572Z,99.9
2023-01-08T07:41:20.545Z,99.9
2023-01-08T07:45:27.538Z,99.9
2023-01-08T07:47:29.487Z,99.9
2023-01-08T07:48:32.008Z,99.9
2023-01-08T07:50:33.957Z,99.9
2023-01-08T07:52:35.939Z,99.9
2023-01-08T07:54:37.914Z,99.9
2023-01-08T07:56:42.948Z,99.9
2023-01-08T07:58:44.877Z,99.9
2023-01-08T08:00:46.853Z,99.9
2023-01-08T08:02:48.939Z,99.9
2023-01-08T08:04:50.821Z,99.9
2023-01-08T08:06:52.738Z,99.9
2023-01-08T08:08:54.715Z,99.9
2023-01-08T08:10:59.766Z,99.9
2023-01-08T08:13:01.714Z,99.9
2023-01-08T08:15:03.684Z,99.9
2023-01-08T08:17:05.763Z,99.9
2023-01-08T08:19:07.603Z,99.9
2023-01-08T08:21:09.588Z,99.9
2023-01-08T08:23:11.564Z,99.9
2023-01-08T08:25:16.572Z,99.9
2023-01-08T08:27:18.532Z,99.9
2023-01-08T08:29:20.505Z,99.9
2023-01-08T08:31:22.488Z,99.9
2023-01-08T08:33:24.444Z,99.9
2023-01-08T08:35:26.386Z,99.9
2023-01-08T08:37:28.376Z,99.9
2023-01-08T08:39:33.401Z,99.9
2023-01-08T08:46:00.252Z,99.9
2023-01-08T08:52:09.297Z,99.9
2023-01-08T08:54:11.226Z,99.9
2023-01-08T09:02:19.347Z,99.9
2023-01-08T09:08:28.092Z,99.9
2023-01-08T09:10:30.065Z,99.9
2023-01-08T09:12:31.995Z,99.9
2023-01-08T09:14:33.968Z,99.9
2023-01-08T09:16:36.034Z,99.9
2023-01-08T09:18:37.938Z,99.9
2023-01-08T09:20:42.957Z,99.9
2023-01-08T09:22:44.920Z,99.9
2023-01-08T09:24:46.872Z,99.9
2023-01-08T09:26:48.868Z,99.9
2023-01-08T09:28:50.820Z,99.9
2023-01-08T09:30:52.806Z,99.9
2023-01-08T09:32:54.770Z,99.9
2023-01-08T09:34:59.783Z,99.9
2023-01-08T09:37:01.745Z,99.9
2023-01-08T09:39:03.713Z,99.9
2023-01-08T09:40:06.239Z,99.9
2023-01-08T09:42:08.197Z,99.9
2023-01-08T09:44:10.152Z,99.9
2023-01-08T09:46:12.158Z,99.9
2023-01-08T09:52:21.121Z,99.9
2023-01-08T09:54:23.089Z,99.9
2023-01-08T10:00:29.135Z,99.9
2023-01-08T10:06:38.012Z,99.9
2023-01-08T10:08:39.981Z,99.9
2023-01-08T10:12:43.903Z,99.9
2023-01-08T10:14:45.883Z,99.9
2023-01-08T10:16:50.923Z,99.9
2023-01-08T10:18:52.891Z,99.9
2023-01-08T10:20:54.861Z,99.9
2023-01-08T10:22:56.844Z,99.9
2023-01-08T10:24:58.864Z,99.9
2023-01-08T10:27:00.821Z,99.9
2023-01-08T10:29:02.809Z,99.9
2023-01-08T10:31:07.865Z,99.9
2023-01-08T10:33:09.793Z,99.9
2023-01-08T10:35:11.789Z,99.9
2023-01-08T10:40:18.258Z,99.9
2023-01-08T10:42:20.222Z,99.9
2023-01-08T10:44:25.261Z,99.9
2023-01-08T10:46:27.265Z,99.9
2023-01-08T10:48:29.242Z,99.9
2023-01-08T10:50:31.228Z,99.9
2023-01-08T10:52:33.235Z,99.9
2023-01-08T10:58:42.201Z,99.9
2023-01-08T11:00:44.221Z,99.9
2023-01-08T11:02:46.231Z,99.9
2023-01-08T11:04:48.162Z,99.9
2023-01-08T11:06:50.170Z,99.9
2023-01-08T11:08:52.137Z,99.9
2023-01-08T11:10:54.118Z,99.9
2023-01-08T11:12:59.149Z,99.9
2023-01-08T11:15:01.151Z,99.9
2023-01-08T11:17:03.142Z,99.9
2023-01-08T11:19:05.158Z,99.9
2023-01-08T11:23:09.119Z,99.9
2023-01-08T11:25:13.892Z,99.9
2023-01-08T11:27:16.109Z,99.9
2023-01-08T11:29:18.142Z,99.9
2023-01-08T11:31:20.145Z,99.9
2023-01-08T11:32:22.651Z,99.9
2023-01-08T11:34:24.625Z,99.9
2023-01-08T11:38:28.643Z,94.6
2023-01-08T11:40:33.675Z,92.8
2023-01-08T11:42:35.643Z,93
2023-01-08T11:44:37.642Z,93.5
2023-01-08T11:46:39.648Z,97.8
2023-01-08T11:48:41.662Z,98.3
2023-01-08T11:54:50.676Z,98.7
2023-01-08T12:02:58.723Z,99.6
2023-01-08T12:05:00.674Z,99.8
2023-01-08T12:11:09.694Z,99.8
2023-01-08T12:13:11.702Z,93.5
2023-01-08T12:21:19.690Z,99.8
2023-01-08T12:27:48.663Z,95.3
2023-01-08T12:29:51.518Z,98.7
2023-01-08T12:32:02.572Z,96.6
2023-01-08T12:33:55.508Z,84
2023-01-08T12:36:00.597Z,78.9
2023-01-08T12:38:02.587Z,70.1
2023-01-08T12:40:06.173Z,71.4
2023-01-08T12:42:08.104Z,73.7
2023-01-08T12:44:10.191Z,73.4
2023-01-08T12:46:12.123Z,66.5
2023-01-08T12:50:19.252Z,65.5
2023-01-08T12:52:21.159Z,67.2
2023-01-08T12:54:23.132Z,67.4
2023-01-08T12:56:25.147Z,68.1
2023-01-08T12:58:27.150Z,69.2
2023-01-08T13:00:29.146Z,83.3
2023-01-08T13:02:31.280Z,99.6
2023-01-08T13:04:36.198Z,99.8
2023-01-08T13:06:38.199Z,99.8
2023-01-08T13:08:40.250Z,99.8
2023-01-08T13:10:42.224Z,99.8
2023-01-08T13:12:44.203Z,99.8
2023-01-08T13:14:46.207Z,99.9
2023-01-08T13:16:48.301Z,99.9
2023-01-08T13:22:57.267Z,99.9
2023-01-08T13:23:59.792Z,99.9
2023-01-08T13:26:01.795Z,99.9
2023-01-08T13:28:03.803Z,99.9
2023-01-08T13:30:05.784Z,99.9
2023-01-08T13:32:10.830Z,99.9
2023-01-08T13:34:12.836Z,99.9
2023-01-08T13:36:14.860Z,99.9
2023-01-08T13:40:18.875Z,99.9
2023-01-08T13:42:20.850Z,99.9
2023-01-08T13:44:22.859Z,99.9
2023-01-08T13:46:27.922Z,99.9
2023-01-08T13:48:29.912Z,99.9
2023-01-08T13:50:31.914Z,99.9
2023-01-08T13:52:33.920Z,99.9
2023-01-08T13:54:35.921Z,99.9
2023-01-08T13:56:37.923Z,99.9
2023-01-08T13:58:39.920Z,99.9
2023-01-08T14:02:47.064Z,99.9
2023-01-08T14:04:48.955Z,99.9
2023-01-08T14:06:50.971Z,99.9
2023-01-08T14:08:52.960Z,99.9
2023-01-08T14:19:06.011Z,99.9
2023-01-08T14:20:08.526Z,99.9
2023-01-08T14:22:10.520Z,99.9
2023-01-08T14:24:12.527Z,99.9
2023-01-08T14:26:14.513Z,99.9
2023-01-08T14:28:19.577Z,99.9
2023-01-08T14:30:21.556Z,99.9
2023-01-08T14:32:23.556Z,99.9
2023-01-08T14:34:25.573Z,99.9
2023-01-08T14:38:29.600Z,99.9
2023-01-08T14:40:31.564Z,99.9
2023-01-08T14:42:36.627Z,99.9
2023-01-08T14:44:42.232Z,99.9
2023-01-08T14:46:40.667Z,99.9
2023-01-08T14:48:42.647Z,99.9
2023-01-08T14:50:44.634Z,99.9
2023-01-08T14:52:46.636Z,99.9
2023-01-08T14:54:48.635Z,99.9
2023-01-08T15:00:57.810Z,99.9
2023-01-08T15:02:59.761Z,99.9
2023-01-08T15:05:01.681Z,99.9
2023-01-08T15:07:03.688Z,99.9
2023-01-08T15:09:05.679Z,99.9
2023-01-08T15:13:12.712Z,99.9
2023-01-08T15:15:14.710Z,99.9
2023-01-08T15:16:17.271Z,99.9
2023-01-08T15:18:19.234Z,99.9
2023-01-08T15:20:21.296Z,99.9
2023-01-08T15:22:23.227Z,99.9
2023-01-08T15:24:28.270Z,99.9
2023-01-08T15:26:30.263Z,99.9
2023-01-08T15:28:32.265Z,99.9
2023-01-08T15:34:38.263Z,99.9
2023-01-08T15:36:40.248Z,99.9
2023-01-08T15:42:49.276Z,99.9
2023-01-08T15:44:51.262Z,99.9
2023-01-08T15:46:53.248Z,99.9
2023-01-08T15:48:55.238Z,99.9
2023-01-08T15:50:57.236Z,99.9
2023-01-08T15:53:02.275Z,99.9
2023-01-08T15:55:04.262Z,99.9
2023-01-08T15:57:06.229Z,99.9
2023-01-08T15:59:08.234Z,99.9
2023-01-08T16:05:14.180Z,99.9
2023-01-08T16:11:23.189Z,99.9
2023-01-08T16:13:46.031Z,99.9
2023-01-08T16:15:47.984Z,99.9
2023-01-08T16:17:49.964Z,99.9
2023-01-08T16:19:55.022Z,99.9
2023-01-08T16:21:57.008Z,99.9
2023-01-08T16:23:58.997Z,99.9
2023-01-08T16:26:00.966Z,99.9
2023-01-08T16:28:02.988Z,99.9
2023-01-08T16:30:04.957Z,99.9
2023-01-08T16:32:06.916Z,99.9
2023-01-08T16:34:11.960Z,99.9
2023-01-08T16:36:13.939Z,99.9
2023-01-08T16:38:15.923Z,99.9
2023-01-08T16:40:17.927Z,99.9
2023-01-08T16:42:19.877Z,99.9
2023-01-08T16:46:23.840Z,99.9
2023-01-08T16:50:30.832Z,99.9
2023-01-08T16:52:32.841Z,99.9
2023-01-08T16:54:34.817Z,99.9
2023-01-08T16:56:36.758Z,99.9
2023-01-08T16:58:38.743Z,99.9
2023-01-08T17:00:40.808Z,99.9
2023-01-08T17:02:45.756Z,99.9
2023-01-08T17:04:47.720Z,99.9
2023-01-08T17:06:49.676Z,99.9
2023-01-08T17:09:54.187Z,99.9
2023-01-08T17:11:56.134Z,99.9
2023-01-08T17:13:58.109Z,99.9
2023-01-08T17:16:03.214Z,99.9
2023-01-08T17:18:05.113Z,99.9
2023-01-08T17:20:07.071Z,99.9
2023-01-08T17:24:10.998Z,99.9
2023-01-08T17:26:12.968Z,99.9
2023-01-08T17:28:14.923Z,99.9
2023-01-08T17:30:19.948Z,99.9
2023-01-08T17:32:21.919Z,99.9
2023-01-08T17:34:23.875Z,99.9
2023-01-08T17:36:25.870Z,99.9
2023-01-08T17:38:27.849Z,99.9
2023-01-08T17:40:29.798Z,99.9
2023-01-08T17:42:31.737Z,99.9
2023-01-08T17:44:36.765Z,99.9
2023-01-08T17:46:38.736Z,99.9
2023-01-08T17:52:44.608Z,99.9
2023-01-08T17:54:46.589Z,99.9
2023-01-08T17:56:48.535Z,99.9
2023-01-08T17:58:53.569Z,99.9
2023-01-08T18:00:55.598Z,99.9
2023-01-08T18:02:57.564Z,99.9
2023-01-08T18:04:00.006Z,99.9
2023-01-08T18:06:01.983Z,99.9
2023-01-08T18:08:03.937Z,99.9
2023-01-08T18:10:05.923Z,99.9
2023-01-08T18:12:10.947Z,99.9
2023-01-08T18:14:12.949Z,99.9
2023-01-08T18:16:14.966Z,99.9
2023-01-08T18:18:16.868Z,99.9
2023-01-08T18:20:18.818Z,99.9
2023-01-08T18:22:20.814Z,99.9
2023-01-08T18:24:22.772Z,99.9
2023-01-08T18:26:27.797Z,99.9
2023-01-08T18:28:29.748Z,99.9
2023-01-08T18:32:33.701Z,99.9
2023-01-08T18:34:37.187Z,99.9
2023-01-08T18:36:39.137Z,99.9
2023-01-08T18:38:41.121Z,99.9
2023-01-08T18:40:46.120Z,99.9
2023-01-08T18:42:48.121Z,99.9
2023-01-08T18:44:50.051Z,99.9
2023-01-08T18:46:52.037Z,99.9
2023-01-08T18:48:53.999Z,99.9
2023-01-08T18:50:55.941Z,99.9
2023-01-08T18:52:57.933Z,99.9
2023-01-08T18:55:02.950Z,99.9
2023-01-08T18:57:04.907Z,99.9
2023-01-08T18:59:06.863Z,99.9
2023-01-08T19:00:09.401Z,99.9
2023-01-08T19:02:11.538Z,99.9
2023-01-08T19:04:13.326Z,99.9
2023-01-08T19:06:15.290Z,99.9
2023-01-08T19:08:20.309Z,99.9
2023-01-08T19:10:22.308Z,99.9
2023-01-08T19:12:24.257Z,99.9
2023-01-08T19:14:26.228Z,99.9
2023-01-08T19:16:28.274Z,99.9
2023-01-08T19:18:30.194Z,99.9
2023-01-08T19:20:32.159Z,99.9
2023-01-08T19:22:37.156Z,99.9
2023-01-08T19:24:39.104Z,99.9
2023-01-08T19:26:41.124Z,99.9
2023-01-08T19:28:43.083Z,99.9
2023-01-08T19:30:45.057Z,99.9
2023-01-08T19:32:47.008Z,99.9
2023-01-08T19:34:48.969Z,99.9
2023-01-08T19:36:54.008Z,99.9
2023-01-08T19:38:55.975Z,99.9
2023-01-08T19:40:57.937Z,99.9
2023-01-08T19:42:59.924Z,99.9
2023-01-08T19:45:01.880Z,99.9
2023-01-08T19:47:03.931Z,99.9
2023-01-08T19:49:05.918Z,99.9
2023-01-08T19:51:10.891Z,99.9
2023-01-08T19:53:14.528Z,99.9
2023-01-08T19:55:14.815Z,99.9
2023-01-08T19:57:31.456Z,99.9
2023-01-08T19:59:33.391Z,99.9
2023-01-08T20:01:35.589Z,99.9
2023-01-08T20:03:40.383Z,99.9
2023-01-08T20:05:42.314Z,99.9
2023-01-08T20:07:44.316Z,99.9
2023-01-08T20:09:46.256Z,99.9
2023-01-08T20:11:48.220Z,99.9
2023-01-08T20:13:50.178Z,99.9
2023-01-08T20:17:57.165Z,99.9
2023-01-08T20:19:59.128Z,99.9
2023-01-08T20:22:01.110Z,99.9
2023-01-08T20:24:03.053Z,99.9
2023-01-08T20:26:05.007Z,99.9
2023-01-08T20:28:06.991Z,99.9
2023-01-08T20:30:08.933Z,99.9
2023-01-08T20:32:14.026Z,99.9
2023-01-08T20:34:15.909Z,99.9
2023-01-08T20:36:17.871Z,99.9
2023-01-08T20:38:19.809Z,99.9
2023-01-08T20:40:21.783Z,99.9
2023-01-08T20:42:33.544Z,99.9
2023-01-08T20:44:25.738Z,99.9
2023-01-08T20:46:30.762Z,99.9
2023-01-08T20:48:37.042Z,99.9
2023-01-08T20:50:34.655Z,99.9
2023-01-08T20:51:37.190Z,99.9
2023-01-08T20:53:39.177Z,99.9
2023-01-08T20:55:41.091Z,99.9
2023-01-08T20:57:43.080Z,99.9
2023-01-08T20:59:48.087Z,99.9
2023-01-08T21:01:50.142Z,99.9
2023-01-08T21:03:52.077Z,99.9
2023-01-08T21:05:54.008Z,99.9
2023-01-08T21:07:55.949Z,99.9
2023-01-08T21:09:57.941Z,99.9
2023-01-08T21:11:59.901Z,99.9
2023-01-08T21:14:04.925Z,99.9
2023-01-08T21:16:06.947Z,99.9
2023-01-08T21:20:10.839Z,99.9
2023-01-08T21:22:12.814Z,99.9
2023-01-08T21:24:14.802Z,99.9
2023-01-08T21:30:23.870Z,99.9
2023-01-08T21:32:25.819Z,99.9
2023-01-08T21:34:27.785Z,99.9
2023-01-08T21:36:29.739Z,99.9
2023-01-08T21:40:33.676Z,99.9
2023-01-08T21:42:38.710Z,99.9
2023-01-08T21:47:45.153Z,99.9
2023-01-08T21:51:49.105Z,99.9
2023-01-08T21:53:51.122Z,99.9
2023-01-08T21:55:56.116Z,99.9
2023-01-08T22:00:00.109Z,99.9
2023-01-08T22:04:04.041Z,99.9
2023-01-08T22:06:05.947Z,99.9
2023-01-08T22:08:07.932Z,99.9
2023-01-08T22:12:14.940Z,99.9
2023-01-08T22:14:16.912Z,99.9
2023-01-08T22:34:39.738Z,99.9
2023-01-08T22:42:50.689Z,99.9
2023-01-08T22:52:04.141Z,99.9
2023-01-08T23:00:12.064Z,99.9
2023-01-08T23:06:21.015Z,99.9
2023-01-08T23:08:22.987Z,99.9
2023-01-08T23:18:32.871Z,99.9
2023-01-08T23:20:37.887Z,99.9
2023-01-08T23:22:39.888Z,99.9
2023-01-08T23:24:41.845Z,99.9
2023-01-08T23:26:43.816Z,99.9
2023-01-08T23:30:47.792Z,99.9
2023-01-08T23:32:49.770Z,99.9
2023-01-08T23:34:54.791Z,99.9
2023-01-08T23:36:56.788Z,99.9
2023-01-08T23:38:58.771Z,99.9
2023-01-08T23:41:21.598Z,99.9
2023-01-08T23:43:23.552Z,99.9
2023-01-08T23:45:25.548Z,99.9
2023-01-08T23:47:30.563Z,99.9
2023-01-08T23:49:32.555Z,99.9
2023-01-08T23:51:34.539Z,99.9
2023-01-08T23:53:36.615Z,99.9
2023-01-08T23:57:40.442Z,99.9
2023-01-08T23:59:42.445Z,99.9
